• Join FlightAware (Why Join?)
  • Login
  • US Flag 
11:46AM EDT


 

Airport Tracker/Info


-or-


 

Live Flight TrackerFlight Track Log ✈ SWA975 ✈ 11-May-2013 ✈ KBDL - KFLL

Flight Track Log - Related Links

Times and Time Zones

All times are in EDT time to prevent confusion due to time zone crossing. See the SWA975 flight status page for this flight to view local times or setup timezone preferences in your user account.

Time Position Orientation Groundspeed Altitude Reporting Facility
EDT Latitude Longitude Course Direction KTS MPH feet Rate Location/Type
08:20AM 41.9500 -72.6717 69° East 173 199 700  Level Boston Center
08:21AM 41.9731 -72.5908 69° East 200 230 2,500 1,620 Climbing Boston Center
08:22AM 41.9628 -72.4931 98° East 234 269 4,300 2,340 Climbing Boston Center
08:23AM 41.8981 -72.4875 176° South 199 229 7,200 3,180 Climbing Boston Center
08:24AM 41.8169 -72.4594 166° South 252 290 10,700 2,640 Climbing Boston Center
08:25AM 41.7356 -72.4289 164° South 318 366 12,500 2,400 Climbing Boston Center
08:26AM 41.6292 -72.3956 167° South 350 403 15,500 2,700 Climbing Boston Center
08:27AM 41.5375 -72.3681 167° South 378 435 17,900 2,400 Climbing Boston Center
08:28AM 41.4292 -72.3489 172° South 385 443 20,400 2,460 Climbing Boston Center
08:29AM 41.3228 -72.3433 178° South 385 443 22,900 2,100 Climbing Boston Center
08:30AM 41.2250 -72.4208 211° Southwest 355 409 24,700 1,680 Climbing Boston Center
08:31AM 41.1458 -72.5256 225° Southwest 371 427 26,300 1,500 Climbing Boston Center
08:32AM 41.0561 -72.6161 217° Southwest 392 451 27,800 1,620 Climbing Boston Center
08:33AM 40.9622 -72.7122 218° Southwest 409 471 29,600 1,980 Climbing Boston Center
08:34AM 40.8703 -72.8025 217° Southwest 419 482 31,800 1,860 Climbing Boston Center
08:35AM 40.7822 -72.8897 217° Southwest 414 476 33,400 1,440 Climbing Boston Center
08:36AM 40.6986 -72.9656 215° Southwest 420 483 34,700 1,320 Climbing Boston Center
08:37AM 40.6086 -73.0578 218° Southwest 420 483 36,100 1,500 Climbing Boston Center
08:38AM 40.5183 -73.1444 216° Southwest 413 475 37,700 900 Climbing Boston Center
08:39AM 40.4303 -73.2281 216° Southwest 408 470 38,000 60 Climbing Boston Center
08:41AM 40.2561 -73.4089 218° Southwest 390 449 38,000  Level Washington Center
08:42AM 40.1719 -73.4875 216° Southwest 390 449 38,000  Level Washington Center
08:44AM 40.0758 -73.5797 216° Southwest 390 449 38,000  Level Washington Center
08:44AM 39.9917 -73.6608 216° Southwest 385 443 38,000  Level Washington Center
08:45AM 39.9056 -73.7414 216° Southwest 385 443 38,000  Level Washington Center
08:46AM 39.8253 -73.8219 218° Southwest 385 443 38,000  Level Washington Center
08:47AM 39.7411 -73.8994 215° Southwest 379 436 38,000  Level Washington Center
08:49AM 39.6525 -73.9692 211° Southwest 379 436 38,000  Level Washington Center
08:49AM 39.5617 -74.0411 211° Southwest 379 436 38,000  Level Washington Center
08:50AM 39.4708 -74.1131 211° Southwest 384 442 38,000  Level Washington Center
08:51AM 39.3800 -74.1847 211° Southwest 384 442 38,000  Level Washington Center
08:52AM 39.2872 -74.2617 213° Southwest 390 449 38,000  Level Washington Center
08:53AM 39.1983 -74.3328 212° Southwest 390 449 38,000  Level Washington Center
08:54AM 39.1075 -74.4039 211° Southwest 385 443 38,000  Level Washington Center
08:55AM 39.0308 -74.4639 211° Southwest 380 437 38,000  Level Washington Center
08:57AM 38.9419 -74.5322 211° Southwest 380 437 38,000  Level Washington Center
08:57AM 38.8508 -74.6053 212° Southwest 385 443 38,000  Level Washington Center
08:58AM 38.7617 -74.6731 211° Southwest 385 443 38,000  Level Washington Center
08:59AM 38.6725 -74.7381 210° Southwest 380 437 38,000  Level Washington Center
09:01AM 38.5833 -74.8108 213° Southwest 380 437 38,000  Level Washington Center
09:01AM 38.4942 -74.8781 211° Southwest 380 437 38,000  Level Washington Center
09:02AM 38.4050 -74.9478 212° Southwest 380 437 38,000  Level Washington Center
09:03AM 38.3197 -75.0147 212° Southwest 380 437 38,000  Level Washington Center
09:04AM 38.2303 -75.0869 212° Southwest 380 437 38,000  Level Washington Center
09:06AM 38.1431 -75.1561 212° Southwest 380 437 38,000  Level Washington Center
09:06AM 38.0494 -75.2253 210° Southwest 380 437 38,000  Level Washington Center
09:07AM 37.9581 -75.2942 211° Southwest 380 437 38,000  Level Washington Center
09:08AM 37.8664 -75.3656 212° Southwest 385 443 38,000  Level Washington Center
09:09AM 37.7725 -75.4342 210° Southwest 390 449 38,000  Level Washington Center
09:11AM 37.6808 -75.5025 211° Southwest 390 449 38,000  Level Washington Center
09:11AM 37.5892 -75.5683 210° Southwest 385 443 38,000  Level Washington Center
09:12AM 37.4953 -75.6389 211° Southwest 385 443 38,000  Level Washington Center
09:13AM 37.4078 -75.7069 212° Southwest 380 437 38,000  Level Washington Center
09:14AM 37.3178 -75.7719 210° Southwest 380 437 38,000  Level Washington Center
09:15AM 37.2322 -75.8369 211° Southwest 380 437 38,000  Level Washington Center
09:16AM 37.1444 -75.9019 211° Southwest 380 437 38,000  Level Washington Center
09:17AM 37.0567 -75.9667 210° Southwest 375 432 38,000  Level Washington Center
09:19AM 36.9583 -76.0311 208° Southwest 375 432 38,000  Level Washington Center
09:20AM 36.8683 -76.0981 211° Southwest 387 445 38,000  Level Washington Center
09:20AM 36.7764 -76.1650 210° Southwest 387 445 38,000  Level Washington Center
09:21AM 36.6781 -76.2419 212° Southwest 387 445 38,000  Level Washington Center
09:23AM 36.5878 -76.3083 211° Southwest 381 438 38,000  Level Washington Center
09:23AM 36.4956 -76.3747 210° Southwest 381 438 38,000  Level Washington Center
09:24AM 36.4056 -76.4358 209° Southwest 381 438 38,000  Level Washington Center
09:25AM 36.3069 -76.4914 204° Southwest 381 438 38,000  Level Washington Center
09:26AM 36.2067 -76.5367 200° South 381 438 38,000  Level Washington Center
09:28AM 36.1061 -76.5817 200° South 386 444 38,000  Level Washington Center
09:29AM 36.0075 -76.6267 200° South 386 444 38,000  Level Washington Center
09:30AM 35.9092 -76.6717 200° South 386 444 38,000  Level Washington Center
09:30AM 35.8064 -76.7189 200° South 391 450 38,000  Level Washington Center
09:31AM 35.7081 -76.7611 199° South 391 450 38,000  Level Washington Center
09:32AM 35.6094 -76.8056 200° South 391 450 38,000  Level Washington Center
09:33AM 35.5067 -76.8525 200° South 391 450 38,000  Level Washington Center
09:34AM 35.4061 -76.8994 201° Southwest 391 450 38,000  Level Washington Center
09:36AM 35.3033 -76.9436 199° South 391 450 38,000  Level Washington Center
09:37AM 35.2028 -76.9875 200° South 391 450 38,000  Level Washington Center
09:37AM 35.1000 -77.0342 200° South 391 450 38,000  Level Washington Center
09:38AM 35.0097 -77.0781 202° Southwest 391 450 38,000  Level Washington Center
09:39AM 34.8922 -77.1267 199° South 391 450 38,000  Level Washington Center
09:40AM 34.8000 -77.1703 201° Southwest 396 456 38,000  Level Washington Center
09:42AM 34.6236 -77.2464 200° South 392 451 38,000  Level Jacksonville Center
09:43AM 34.5192 -77.2911 199° South 397 457 38,000  Level Jacksonville Center
09:44AM 34.4150 -77.3381 200° South 397 457 38,000  Level Jacksonville Center
09:45AM 34.3106 -77.3825 199° South 402 463 38,000  Level Jacksonville Center
09:46AM 34.2042 -77.4269 199° South 402 463 38,000  Level Jacksonville Center
09:47AM 34.1022 -77.4833 205° Southwest 407 468 38,000  Level Jacksonville Center
09:48AM 33.9903 -77.5481 206° Southwest 407 468 38,000  Level Jacksonville Center
09:49AM 33.8864 -77.6117 207° Southwest 414 476 38,000  Level Jacksonville Center
09:50AM 33.7867 -77.6678 205° Southwest 414 476 38,000  Level Jacksonville Center
09:51AM 33.6847 -77.7286 206° Southwest 414 476 38,000  Level Jacksonville Center
09:52AM 33.5931 -77.7814 206° Southwest 414 476 38,000  Level Jacksonville Center
09:53AM 33.4931 -77.8394 206° Southwest 414 476 38,000  Level Jacksonville Center
09:54AM 33.3892 -77.8978 205° Southwest 409 471 38,000  Level Jacksonville Center
09:55AM 33.2914 -77.9578 207° Southwest 409 471 38,000  Level Jacksonville Center
09:56AM 33.1872 -78.0156 205° Southwest 414 476 38,000  Level Jacksonville Center
09:57AM 33.0831 -78.0758 206° Southwest 414 476 38,000  Level Jacksonville Center
09:58AM 32.9767 -78.1361 205° Southwest 414 476 38,000  Level Jacksonville Center
09:59AM 32.8728 -78.1983 207° Southwest 414 476 38,000  Level Jacksonville Center
10:00AM 32.7706 -78.2631 208° Southwest 414 476 38,000  Level Jacksonville Center
10:01AM 32.6686 -78.3275 208° Southwest 419 482 38,000  Level Jacksonville Center
10:02AM 32.5644 -78.3869 206° Southwest 419 482 38,000  Level Jacksonville Center
10:03AM 32.4625 -78.4536 209° Southwest 419 482 38,000  Level Jacksonville Center
10:04AM 32.3481 -78.5256 208° Southwest 419 482 38,000  Level Jacksonville Center
10:05AM 32.2436 -78.5894 207° Southwest 424 488 38,000  Level Jacksonville Center
10:06AM 32.1394 -78.6556 208° Southwest 424 488 38,000 480 Level Jacksonville Center
10:07AM 32.0331 -78.7194 207° Southwest 424 488 39,000 960 Climbing Jacksonville Center
10:08AM 31.9308 -78.7803 207° Southwest 419 482 40,000 480 Climbing Jacksonville Center
10:09AM 31.8197 -78.8367 203° Southwest 419 482 40,000  Level Jacksonville Center
10:10AM 31.7019 -78.8686 193° South 426 490 40,000  Level Jacksonville Center
10:11AM 31.5792 -78.8886 188° South 439 505 40,000  Level Jacksonville Center
10:12AM 31.4547 -78.9083 188° South 450 518 40,000  Level Jacksonville Center
10:13AM 31.3300 -78.9236 186° South 455 524 40,000  Level Jacksonville Center
10:14AM 31.2053 -78.9458 189° South 455 524 40,000  Level Jacksonville Center
10:15AM 31.0767 -78.9681 188° South 466 536 40,000  Level Jacksonville Center
10:16AM 30.9664 -78.9800 185° South 461 531 40,000  Level Jacksonville Center
10:17AM 30.8417 -78.9997 188° South 461 531 40,000  Level Jacksonville Center
10:18AM 30.7150 -79.0194 188° South 466 536 40,000  Level Jacksonville Center
10:19AM 30.5861 -79.0392 188° South 466 536 40,000  Level Jacksonville Center
10:20AM 30.4553 -79.0589 187° South 466 536 40,000  Level Jacksonville Center
10:23AM 30.1314 -79.1056 187° South 465 535 40,000  Level Miami Center
10:24AM 29.9850 -79.1311 189° South 473 544 40,000  Level Miami Center
10:25AM 29.8514 -79.1475 186° South 486 559 40,000  Level Miami Center
10:26AM 29.7236 -79.1806 193° South 493 567 40,000  Level Miami Center
10:27AM 29.5917 -79.2161 193° South 488 562 40,000  Level Miami Center
10:28AM 29.4719 -79.2611 198° South 483 556 40,000  Level Miami Center
10:29AM 29.3319 -79.2817 187° South 484 557 40,000 -1,260 Level Miami Center
10:30AM 29.1978 -79.3072 189° South 478 550 37,500 -2,280 Descending Miami Center
10:31AM 29.0783 -79.3428 195° South 466 536 35,500 -2,220 Descending Miami Center
10:32AM 28.9569 -79.3731 192° South 460 529 33,100 -2,160 Descending Miami Center
10:33AM 28.8333 -79.4036 192° South 455 524 31,200 -1,500 Descending Miami Center
10:34AM 28.7094 -79.4339 192° South 449 517 30,200 -600 Descending Miami Center
10:35AM 28.5858 -79.4642 192° South 449 517 30,000 -120 Descending Miami Center
10:36AM 28.4642 -79.4944 192° South 449 517 30,000  Level Miami Center
10:37AM 28.3383 -79.5267 193° South 454 522 30,000  Level Miami Center
10:38AM 28.2169 -79.5569 192° South 454 522 30,000  Level Miami Center
10:39AM 28.0911 -79.5867 192° South 454 522 30,000  Level Miami Center
10:40AM 27.9672 -79.6167 192° South 454 522 30,000  Level Miami Center
10:41AM 27.8456 -79.6467 192° South 448 516 30,000  Level Miami Center
10:42AM 27.7197 -79.6764 192° South 457 526 30,000 -540 Level Miami Center
10:43AM 27.6083 -79.7158 197° South 457 526 29,000 -1,500 Descending Miami Center
10:44AM 27.5044 -79.7931 213° Southwest 452 520 27,100 -2,100 Descending Miami Center
10:45AM 27.3919 -79.8836 216° Southwest 460 529 24,800 -2,160 Descending Miami Center
10:46AM 27.2944 -79.9581 214° Southwest 455 524 22,800 -2,100 Descending Miami Center
10:47AM 27.1989 -80.0233 211° Southwest 436 502 20,700 -1,980 Descending Miami Center
10:48AM 27.0956 -79.9833 161° South 358 412 18,900 -1,500 Descending Miami Center
10:49AM 27.0197 -79.9136 141° Southeast 353 406 17,800 -1,200 Descending Miami Center
10:50AM 26.9294 -79.8367 143° Southeast 370 426 16,500 -1,200 Descending Miami Center
10:51AM 26.8492 -79.7694 143° Southeast 375 432 15,400 -1,200 Descending Miami Center
10:52AM 26.7628 -79.7067 147° Southeast 370 426 14,200 -1,320 Descending Miami Center
10:53AM 26.6706 -79.7186 187° South 323 372 12,800 -1,620 Descending Miami Center
10:54AM 26.5947 -79.7561 204° Southwest 323 372 11,000 -1,620 Descending Miami Center
10:54AM 26.5253 -79.7892 203° Southwest 311 358 10,000 -1,320 Descending Miami Center
10:55AM 26.4808 -79.8161 208° Southwest 283 326 9,200 -1,620 Descending Miami Center
10:56AM 26.4450 -79.8289 198° South 298 343 8,100 -1,200 Descending Miami Center
10:56AM 26.4047 -79.8514 207° Southwest 285 328 8,000 -120 Descending Miami Center
10:57AM 26.3669 -79.8711 205° Southwest 287 330 8,000  Level Miami Center
10:57AM 26.3347 -79.9050 223° Southwest 282 325 8,000  Level Miami Center
10:58AM 26.3133 -79.9253 220° Southwest 287 330 8,000 -600 Level Miami Center
10:58AM 26.2708 -79.9661 221° Southwest 280 322 7,400 -900 Descending Miami Center
10:59AM 26.2558 -79.9819 223° Southwest 282 325 7,100 -420 Descending Miami Center
10:59AM 26.2133 -80.0225 221° Southwest 274 315 7,000 -240 Descending Miami Center
11:00AM 26.2003 -80.0383 227° Southwest 282 325 6,900 -480 Descending Miami Center
11:01AM 26.1633 -80.1089 240° Southwest 277 319 6,400 -660 Descending Miami Center
11:01AM 26.1475 -80.1572 250° West 263 303 5,900 -600 Descending Miami Center
11:02AM 26.1469 -80.1825 269° West 266 306 5,800 -720 Descending Miami Center
11:02AM 26.1478 -80.2406 271° West 232 267 5,100 -900 Descending Miami Center
11:03AM 26.1494 -80.2544 278° West 245 282 4,900 -120 Descending Miami Center
11:03AM 26.1481 -80.3169 269° West 228 262 5,000 -180 Climbing Miami Center
11:04AM 26.1483 -80.3933 270° West 229 264 4,600 -540 Descending Miami Center
11:05AM 26.1364 -80.4600 259° West 225 259 4,000 -360 Descending Miami Center
11:06AM 26.0844 -80.4469 167° South 222 255 4,000 -240 Level Miami Center
11:08AM 26.0756 -80.3842 99° East 187 215 3,600 -660 Descending Miami Center
11:09AM 26.0747 -80.3217 91° East 191 220 2,600 -1,020 Descending Miami Center
11:09AM 26.0739 -80.2686 91° East 187 215 1,700 -960 Descending Miami Center
11:10AM 26.0753 -80.2175 88° East 150 173 800 -900 Descending Miami Center
11:13AM 26.0667 -80.1500 103° East  Level FlightAware Approximate
11:20AM 26.0726 -80.1527 103° East  Level Estimated